Terminal Aerodrome Forecast
Issued by NWS Upton, NY

Home | Current Version | Previous Version | Text Only | Print | Product List | Glossary On
Versions: 1 2 3 4 5 6 7 8 9 10 11 12 13 14 15 16 17 18 19 20 21 22 23 24 25 26 27
000
FTUS41 KOKX 301907 AAA
TAFJFK
TAF AMD
KJFK 301907Z 3019/3124 19016G22KT P6SM VCTS SCT020 BKN035CB
      TEMPO 3020/3024 1SM +TSRA BKN030CB
     FM310100 23008KT P6SM SCT030 BKN100
     FM310600 30008KT P6SM FEW250
     FM311600 28010KT P6SM SCT060
     FM312100 24012G18KT P6SM SCT060=

USA.gov is the U.S. government's official web portal to all federal, state and local government web resources and services.